createdAt,value
2023-03-13T00:00:09.065Z,100020.75
2023-03-13T00:01:26.412Z,100026.63
2023-03-13T00:02:27.979Z,100020.47
2023-03-13T00:03:31.867Z,100013.19
2023-03-13T00:04:33.414Z,100014.88
2023-03-13T00:05:36.680Z,100011.38
2023-03-13T00:06:42.289Z,100009.56
2023-03-13T00:07:43.800Z,100005.94
2023-03-13T00:08:46.299Z,100002.28
2023-03-13T00:09:49.490Z,99999.63
2023-03-13T00:10:52.223Z,100000.66
2023-03-13T00:11:54.758Z,99987.22
2023-03-13T00:12:56.354Z,99996.00
2023-03-13T00:14:00.964Z,99992.22
2023-03-13T00:15:02.817Z,99988.59
2023-03-13T00:16:08.450Z,99981.47
2023-03-13T00:17:10.290Z,99984.13
2023-03-13T00:18:12.955Z,99976.00
2023-03-13T00:19:15.902Z,99978.53
2023-03-13T00:20:18.630Z,99982.88
2023-03-13T00:21:23.074Z,99982.88
2023-03-13T00:22:25.601Z,99979.19
2023-03-13T00:23:27.467Z,99976.53
2023-03-13T00:24:29.952Z,99975.56
2023-03-13T00:25:31.543Z,99971.09
2023-03-13T00:26:34.344Z,99971.09
2023-03-13T00:27:35.949Z,99958.81
2023-03-13T00:28:40.253Z,99960.63
2023-03-13T00:29:41.833Z,99957.00
2023-03-13T00:30:44.398Z,99950.84
2023-03-13T00:31:46.100Z,99949.03
2023-03-13T00:32:49.098Z,99942.03
2023-03-13T00:33:53.641Z,99941.06
2023-03-13T00:34:58.005Z,99945.53
2023-03-13T00:36:00.693Z,99946.38
2023-03-13T00:37:03.706Z,99933.09
2023-03-13T00:38:05.308Z,99939.38
2023-03-13T00:39:08.042Z,99930.44
2023-03-13T00:40:11.548Z,99934.91
2023-03-13T00:41:16.531Z,99928.75
2023-03-13T00:42:19.091Z,99937.56
2023-03-13T00:43:21.040Z,99941.06
2023-03-13T00:44:28.794Z,99934.06
2023-03-13T00:45:30.321Z,99937.56
2023-03-13T00:46:32.875Z,99930.44
2023-03-13T00:47:34.503Z,99923.44
2023-03-13T00:48:37.768Z,99929.47
2023-03-13T00:49:40.745Z,99935.75
2023-03-13T00:50:43.606Z,99928.63
2023-03-13T00:51:46.207Z,99929.47
2023-03-13T00:52:57.763Z,99927.63
2023-03-13T00:54:01.258Z,99924.16
2023-03-13T00:55:04.101Z,99921.50
2023-03-13T00:56:08.982Z,99914.34
2023-03-13T00:57:10.508Z,99915.19
2023-03-13T00:58:13.161Z,99911.56
2023-03-13T00:59:14.871Z,99913.38
2023-03-13T01:00:18.401Z,99905.41
2023-03-13T01:01:23.069Z,99906.25
2023-03-13T01:02:25.658Z,99904.56
2023-03-13T01:03:27.500Z,99903.59
2023-03-13T01:04:30.024Z,99908.91
2023-03-13T01:05:31.551Z,99906.25
2023-03-13T01:06:37.588Z,99900.94
2023-03-13T01:07:39.117Z,99899.13
2023-03-13T01:08:41.759Z,99902.63
2023-03-13T01:09:43.276Z,99899.13
2023-03-13T01:10:45.894Z,99894.66
2023-03-13T01:11:47.458Z,99893.81
2023-03-13T01:12:49.936Z,99892.97
2023-03-13T01:13:54.610Z,99892.97
2023-03-13T01:14:57.249Z,99881.69
2023-03-13T01:16:02.945Z,99875.38
2023-03-13T01:17:05.926Z,99875.38
2023-03-13T01:18:07.473Z,99874.69
2023-03-13T01:19:13.300Z,99869.38
2023-03-13T01:20:15.376Z,99870.22
2023-03-13T01:21:19.671Z,99866.72
2023-03-13T01:22:22.656Z,99865.03
2023-03-13T01:23:25.187Z,99862.38
2023-03-13T01:24:26.727Z,99857.91
2023-03-13T01:25:29.216Z,99864.06
2023-03-13T01:26:30.782Z,99858.75
2023-03-13T01:27:33.320Z,99850.78
2023-03-13T01:28:35.787Z,99848.97
2023-03-13T01:29:38.503Z,99852.47
2023-03-13T01:30:40.033Z,99852.47
2023-03-13T01:31:42.904Z,99855.81
2023-03-13T01:32:44.469Z,99850.50
2023-03-13T01:33:48.302Z,99855.81
2023-03-13T01:34:49.852Z,99848.69
2023-03-13T01:35:52.507Z,99848.69
2023-03-13T01:36:54.305Z,99845.84
2023-03-13T01:37:58.276Z,99845.03
2023-03-13T01:39:01.202Z,99837.88
2023-03-13T01:40:03.777Z,99845.72
2023-03-13T01:41:07.881Z,99833.41
2023-03-13T01:42:10.440Z,99831.47
2023-03-13T01:43:28.093Z,99830.63
2023-03-13T01:44:30.678Z,99833.41
2023-03-13T01:46:10.104Z,99835.09
2023-03-13T01:47:13.588Z,99828.94
2023-03-13T01:48:15.491Z,99823.63
2023-03-13T01:49:20.631Z,99821.97
2023-03-13T01:50:22.427Z,99824.63
2023-03-13T01:51:27.749Z,99821.97
2023-03-13T01:52:31.158Z,99817.50
2023-03-13T01:53:36.204Z,99815.00
2023-03-13T01:54:43.401Z,99802.69
2023-03-13T01:55:45.295Z,99798.53
2023-03-13T01:56:52.311Z,99807.34
2023-03-13T01:57:54.859Z,99795.03
2023-03-13T01:58:58.869Z,99795.19
2023-03-13T02:00:05.400Z,99801.63
2023-03-13T02:01:11.642Z,99796.31
2023-03-13T02:02:15.744Z,99787.69
2023-03-13T02:03:20.796Z,99782.38
2023-03-13T02:04:24.090Z,99779.00
2023-03-13T02:05:27.612Z,99776.34
2023-03-13T02:06:34.002Z,99776.34
2023-03-13T02:07:41.748Z,99773.03
2023-03-13T02:08:52.476Z,99775.69
2023-03-13T02:09:56.700Z,99769.53
2023-03-13T02:11:06.474Z,99759.91
2023-03-13T02:12:11.419Z,99757.41
2023-03-13T02:13:17.249Z,99755.59
2023-03-13T02:14:22.655Z,99758.38
2023-03-13T02:15:27.098Z,99760.06
2023-03-13T02:16:30.194Z,99751.25
2023-03-13T02:17:41.900Z,99751.13
2023-03-13T02:18:44.981Z,99744.97
2023-03-13T02:19:48.671Z,99737.84
2023-03-13T02:20:55.846Z,99736.00
2023-03-13T02:22:09.568Z,99743.97
2023-03-13T02:23:16.965Z,99736.00
2023-03-13T02:24:29.283Z,99739.50
2023-03-13T02:25:39.839Z,99736.84
2023-03-13T02:26:42.772Z,99737.69
2023-03-13T02:27:45.766Z,99730.56
2023-03-13T02:28:48.707Z,99735.88
2023-03-13T02:29:51.770Z,99734.91
2023-03-13T02:30:58.477Z,99737.56
2023-03-13T02:32:00.219Z,99735.72
2023-03-13T02:33:04.095Z,99741.03
2023-03-13T02:34:06.090Z,99723.28
2023-03-13T02:35:11.613Z,99725.94
2023-03-13T02:36:16.872Z,99721.47
2023-03-13T02:37:21.686Z,99712.66
2023-03-13T02:38:25.411Z,99712.66
2023-03-13T02:39:29.396Z,99710.00
2023-03-13T02:40:36.551Z,99710.84
2023-03-13T02:41:41.356Z,99701.91
2023-03-13T02:42:54.899Z,99704.69
2023-03-13T02:43:57.577Z,99696.72
2023-03-13T02:44:59.227Z,99708.03
2023-03-13T02:46:03.604Z,99702.75
2023-03-13T02:47:05.474Z,99700.09
2023-03-13T02:48:08.186Z,99706.22
2023-03-13T02:49:22.499Z,99703.56
2023-03-13T02:50:24.496Z,99692.97
2023-03-13T02:51:31.708Z,99696.41
2023-03-13T02:52:38.969Z,99694.59
2023-03-13T02:53:42.886Z,99695.63
2023-03-13T02:54:47.809Z,99691.09
2023-03-13T02:55:51.886Z,99686.50
2023-03-13T02:56:57.464Z,99684.81
2023-03-13T02:57:59.984Z,99681.19
2023-03-13T02:59:01.552Z,99675.03
2023-03-13T03:00:06.849Z,99678.53
2023-03-13T03:01:09.348Z,99679.38
2023-03-13T03:02:12.323Z,99679.19
2023-03-13T03:03:13.869Z,99677.56
2023-03-13T03:04:16.388Z,99668.59
2023-03-13T03:05:17.999Z,99653.50
2023-03-13T03:06:20.734Z,99653.34
2023-03-13T03:07:22.296Z,99647.03
2023-03-13T03:08:25.202Z,99637.44
2023-03-13T03:09:27.771Z,99639.06
2023-03-13T03:10:29.497Z,99635.56
2023-03-13T03:11:33.333Z,99638.09
2023-03-13T03:12:34.945Z,99643.41
2023-03-13T03:13:37.704Z,99645.91
2023-03-13T03:14:39.304Z,99653.03
2023-03-13T03:15:41.831Z,99652.03
2023-03-13T03:16:43.869Z,99655.53
2023-03-13T03:17:46.392Z,99653.72
2023-03-13T03:18:48.352Z,99660.69
2023-03-13T03:19:51.086Z,99657.03
2023-03-13T03:20:52.722Z,99659.69
2023-03-13T03:21:55.361Z,99658.72
2023-03-13T03:22:56.877Z,99656.75
2023-03-13T03:24:02.231Z,99642.47
2023-03-13T03:25:06.188Z,99648.63
2023-03-13T03:26:09.005Z,99647.78
2023-03-13T03:27:11.915Z,99646.78
2023-03-13T03:28:14.444Z,99639.66
2023-03-13T03:29:16.075Z,99630.69
2023-03-13T03:30:19.721Z,99638.53
2023-03-13T03:31:21.348Z,99643.00
2023-03-13T03:32:23.960Z,99643.84
2023-03-13T03:33:25.468Z,99650.81
2023-03-13T03:34:30.298Z,99647.00
2023-03-13T03:35:31.912Z,99643.38
2023-03-13T03:36:34.516Z,99647.69
2023-03-13T03:37:36.227Z,99650.19
2023-03-13T03:38:39.741Z,99646.53
2023-03-13T03:39:41.264Z,99646.38
2023-03-13T03:40:44.153Z,99642.75
2023-03-13T03:41:45.745Z,99645.22
2023-03-13T03:42:57.129Z,99643.28
2023-03-13T03:43:58.699Z,99642.25
2023-03-13T03:45:01.188Z,99633.31
2023-03-13T03:46:03.246Z,99632.16
2023-03-13T03:47:06.077Z,99638.31
2023-03-13T03:48:07.661Z,99632.16
2023-03-13T03:49:10.187Z,99631.84
2023-03-13T03:50:11.759Z,99626.38
2023-03-13T03:51:14.541Z,99630.72
2023-03-13T03:52:16.113Z,99642.16
2023-03-13T03:53:18.586Z,99636.69
2023-03-13T03:54:20.149Z,99628.72
2023-03-13T03:55:22.958Z,99638.19
2023-03-13T03:56:24.710Z,99648.00
2023-03-13T03:57:27.242Z,99650.50
2023-03-13T03:58:30.282Z,99647.66
2023-03-13T03:59:32.765Z,99644.03
2023-03-13T04:00:34.361Z,99649.22
2023-03-13T04:01:36.864Z,99641.06
2023-03-13T04:02:38.651Z,99649.72
2023-03-13T04:03:41.332Z,99647.88
2023-03-13T04:04:43.022Z,99654.88
2023-03-13T04:05:45.551Z,99654.03
2023-03-13T04:06:48.623Z,99648.56
2023-03-13T04:07:51.569Z,99642.25
2023-03-13T04:08:53.271Z,99647.41
2023-03-13T04:09:55.774Z,99638.47
2023-03-13T04:10:57.286Z,99634.78
2023-03-13T04:11:59.778Z,99632.97
2023-03-13T04:13:01.943Z,99631.00
2023-03-13T04:14:05.767Z,99617.72
2023-03-13T04:15:09.067Z,99627.34
2023-03-13T04:16:11.189Z,99620.19
2023-03-13T04:17:13.778Z,99621.88
2023-03-13T04:18:16.466Z,99620.06
2023-03-13T04:19:18.977Z,99622.38
2023-03-13T04:20:20.814Z,99620.56
2023-03-13T04:21:23.341Z,99618.56
2023-03-13T04:22:25.305Z,99615.91
2023-03-13T04:23:27.779Z,99618.56
2023-03-13T04:24:29.338Z,99605.13
2023-03-13T04:25:31.885Z,99603.28
2023-03-13T04:26:33.403Z,99605.94
2023-03-13T04:27:42.209Z,99619.25
2023-03-13T04:28:43.744Z,99610.28
2023-03-13T04:29:47.595Z,99616.25
2023-03-13T04:30:49.334Z,99610.94
2023-03-13T04:31:52.281Z,99616.94
2023-03-13T04:32:54.750Z,99604.50
2023-03-13T04:33:57.707Z,99613.31
2023-03-13T04:34:59.371Z,99608.78
2023-03-13T04:36:02.002Z,99611.31
2023-03-13T04:37:03.581Z,99613.97
2023-03-13T04:38:06.076Z,99616.63
2023-03-13T04:39:07.605Z,99609.50
2023-03-13T04:40:12.576Z,99602.34
2023-03-13T04:41:14.183Z,99596.03
2023-03-13T04:42:16.682Z,99603.00
2023-03-13T04:43:18.638Z,99595.03
2023-03-13T04:44:21.934Z,99608.19
2023-03-13T04:45:24.880Z,99596.53
2023-03-13T04:46:27.487Z,99597.38
2023-03-13T04:47:29.046Z,99596.38
2023-03-13T04:48:31.597Z,99598.22
2023-03-13T04:49:33.108Z,99594.56
2023-03-13T04:50:35.761Z,99597.22
2023-03-13T04:51:37.296Z,99597.03
2023-03-13T04:52:39.902Z,99606.53
2023-03-13T04:53:41.417Z,99607.34
2023-03-13T04:54:43.903Z,99596.41
2023-03-13T04:55:45.689Z,99591.91
2023-03-13T04:56:48.865Z,99601.56
2023-03-13T04:57:50.388Z,99604.75
2023-03-13T04:58:53.607Z,99585.09
2023-03-13T04:59:55.182Z,99584.31
2023-03-13T05:00:59.078Z,99592.94
2023-03-13T05:02:00.612Z,99588.44
2023-03-13T05:03:03.114Z,99599.75
2023-03-13T05:04:05.108Z,99586.44
2023-03-13T05:05:08.139Z,99597.09
2023-03-13T05:06:10.048Z,99590.59
2023-03-13T05:07:12.532Z,99591.28
2023-03-13T05:08:14.077Z,99580.47
2023-03-13T05:09:16.650Z,99581.16
2023-03-13T05:10:18.460Z,99573.19
2023-03-13T05:11:20.982Z,99570.53
2023-03-13T05:12:22.524Z,99570.34
2023-03-13T05:13:25.134Z,99569.50
2023-03-13T05:14:26.730Z,99556.91
2023-03-13T05:15:29.973Z,99567.34
2023-03-13T05:16:32.855Z,99559.22
2023-03-13T05:17:35.421Z,99556.41
2023-03-13T05:18:37.015Z,99562.72
2023-03-13T05:19:39.561Z,99559.06
2023-03-13T05:20:41.117Z,99558.94
2023-03-13T05:21:43.613Z,99557.09
2023-03-13T05:22:45.296Z,99563.25
2023-03-13T05:23:47.877Z,99570.22
2023-03-13T05:24:49.530Z,99575.53
2023-03-13T05:25:51.998Z,99565.75
2023-03-13T05:26:54.475Z,99562.25
2023-03-13T05:27:56.272Z,99553.28
2023-03-13T05:28:58.794Z,99553.13
2023-03-13T05:30:01.262Z,99553.94
2023-03-13T05:31:03.046Z,99550.28
2023-03-13T05:32:07.348Z,99551.97
2023-03-13T05:33:08.891Z,99560.59
2023-03-13T05:34:21.506Z,99556.13
2023-03-13T05:35:23.273Z,99558.78
2023-03-13T05:36:26.555Z,99549.94
2023-03-13T05:37:28.193Z,99546.31
2023-03-13T05:38:40.864Z,99557.78
2023-03-13T05:39:42.366Z,99551.63
2023-03-13T05:40:44.948Z,99557.78
2023-03-13T05:41:46.487Z,99560.25
2023-03-13T05:42:49.067Z,99553.31
2023-03-13T05:43:50.667Z,99558.44
2023-03-13T05:44:55.371Z,99554.94
2023-03-13T05:45:57.856Z,99559.28
2023-03-13T05:46:59.397Z,99551.28
2023-03-13T05:48:03.477Z,99560.94
2023-03-13T05:49:05.036Z,99568.94
2023-03-13T05:50:08.984Z,99577.56
2023-03-13T05:51:10.576Z,99570.56
2023-03-13T05:52:13.057Z,99576.72
2023-03-13T05:53:14.627Z,99570.56
2023-03-13T05:54:26.948Z,99562.59
2023-03-13T05:55:28.525Z,99563.44
2023-03-13T05:56:31.142Z,99552.63
2023-03-13T05:57:32.718Z,99545.63
2023-03-13T05:58:35.260Z,99551.81
2023-03-13T05:59:36.859Z,99565.75
2023-03-13T06:00:39.429Z,99559.59
2023-03-13T06:01:40.981Z,99552.31
2023-03-13T06:02:44.352Z,99551.28
2023-03-13T06:03:47.460Z,99562.94
2023-03-13T06:04:50.248Z,99560.94
2023-03-13T06:05:58.684Z,99560.94
2023-03-13T06:07:00.536Z,99551.97
2023-03-13T06:08:03.203Z,99556.13
2023-03-13T06:09:04.904Z,99551.63
2023-03-13T06:10:08.095Z,99561.28
2023-03-13T06:11:09.721Z,99557.59
2023-03-13T06:12:13.145Z,99568.94
2023-03-13T06:13:20.152Z,99564.44
2023-03-13T06:14:23.483Z,99553.81
2023-03-13T06:15:25.050Z,99560.78
2023-03-13T06:16:27.726Z,99563.28
2023-03-13T06:17:29.348Z,99566.59
2023-03-13T06:18:32.027Z,99557.63
2023-03-13T06:19:34.923Z,99562.75
2023-03-13T06:20:37.606Z,99550.28
2023-03-13T06:21:39.285Z,99551.97
2023-03-13T06:22:42.546Z,99546.63
2023-03-13T06:23:44.139Z,99564.28
2023-03-13T06:24:49.447Z,99548.13
2023-03-13T06:25:53.558Z,99548.81
2023-03-13T06:26:56.308Z,99560.25
2023-03-13T06:27:57.869Z,99546.94
2023-03-13T06:29:00.558Z,99547.63
2023-03-13T06:30:03.170Z,99541.28
2023-03-13T06:31:14.870Z,99545.63
2023-03-13T06:32:17.513Z,99547.31
2023-03-13T06:33:19.268Z,99541.13
2023-03-13T06:34:21.888Z,99552.28
2023-03-13T06:35:26.028Z,99553.97
2023-03-13T06:36:27.702Z,99547.63
2023-03-13T06:37:30.468Z,99554.63
2023-03-13T06:38:32.668Z,99544.63
2023-03-13T06:39:35.278Z,99553.63
2023-03-13T06:40:36.882Z,99543.63
2023-03-13T06:41:39.957Z,99546.28
2023-03-13T06:42:41.643Z,99563.94
2023-03-13T06:43:44.974Z,99563.94
2023-03-13T06:44:46.747Z,99568.22
2023-03-13T06:45:49.359Z,99564.59
2023-03-13T06:46:51.100Z,99561.91
2023-03-13T06:47:53.853Z,99576.91
2023-03-13T06:48:55.544Z,99581.25
2023-03-13T06:49:58.088Z,99568.59
2023-03-13T06:51:01.998Z,99576.56
2023-03-13T06:52:04.744Z,99575.59
2023-03-13T06:53:06.401Z,99578.06
2023-03-13T06:54:09.094Z,99579.72
2023-03-13T06:55:12.044Z,99574.22
2023-03-13T06:56:15.022Z,99574.91
2023-03-13T06:57:16.555Z,99569.56
2023-03-13T06:58:31.589Z,99576.53
2023-03-13T06:59:34.847Z,99565.88
2023-03-13T07:00:36.982Z,99577.22
2023-03-13T07:01:39.550Z,99569.22
2023-03-13T07:02:41.090Z,99561.91
2023-03-13T07:03:44.214Z,99572.56
2023-03-13T07:04:47.189Z,99564.41
2023-03-13T07:05:48.738Z,99561.56
2023-03-13T07:06:53.374Z,99563.22
2023-03-13T07:07:54.922Z,99568.56
2023-03-13T07:08:57.430Z,99557.72
2023-03-13T07:09:59.393Z,99571.88
2023-03-13T07:11:04.654Z,99564.56
2023-03-13T07:12:07.245Z,99561.91
2023-03-13T07:13:09.758Z,99560.06
2023-03-13T07:14:16.981Z,99567.03
2023-03-13T07:15:20.206Z,99573.19
2023-03-13T07:16:22.905Z,99567.88
2023-03-13T07:17:24.738Z,99565.06
2023-03-13T07:18:27.444Z,99561.56
2023-03-13T07:19:29.937Z,99565.84
2023-03-13T07:20:31.545Z,99567.53
2023-03-13T07:21:34.587Z,99560.22
2023-03-13T07:22:37.606Z,99556.53
2023-03-13T07:23:41.054Z,99558.19
2023-03-13T07:24:45.957Z,99555.53
2023-03-13T07:25:54.240Z,99551.88
2023-03-13T07:27:06.211Z,99549.22
2023-03-13T07:28:08.991Z,99544.69
2023-03-13T07:29:11.600Z,99544.53
2023-03-13T07:30:13.950Z,99544.53
2023-03-13T07:31:23.990Z,99541.72
2023-03-13T07:32:26.625Z,99539.06
2023-03-13T07:33:28.309Z,99543.34
2023-03-13T07:34:31.240Z,99545.88
2023-03-13T07:35:32.845Z,99535.03
2023-03-13T07:36:36.153Z,99537.53
2023-03-13T07:37:40.248Z,99523.22
2023-03-13T07:38:43.904Z,99539.19
2023-03-13T07:39:46.494Z,99534.66
2023-03-13T07:40:49.538Z,99530.19
2023-03-13T07:41:52.063Z,99533.53
2023-03-13T07:42:53.596Z,99525.53
2023-03-13T07:43:56.341Z,99531.50
2023-03-13T07:44:57.891Z,99526.19
2023-03-13T07:46:02.053Z,99525.19
2023-03-13T07:47:05.083Z,99527.00
2023-03-13T07:48:06.638Z,99525.81
2023-03-13T07:49:09.127Z,99519.66
2023-03-13T07:50:11.596Z,99527.50
2023-03-13T07:51:16.396Z,99529.97
2023-03-13T07:52:18.982Z,99533.47
2023-03-13T07:53:23.145Z,99536.97
2023-03-13T07:54:25.754Z,99530.81
2023-03-13T07:55:27.531Z,99532.47
2023-03-13T07:56:30.415Z,99528.97
2023-03-13T07:57:32.224Z,99532.47
2023-03-13T07:58:37.327Z,99527.16
2023-03-13T07:59:38.872Z,99524.50
2023-03-13T08:00:41.398Z,99528.81
2023-03-13T08:01:50.921Z,99519.81
2023-03-13T08:02:52.683Z,99512.84
2023-03-13T08:03:55.818Z,99517.13
2023-03-13T08:05:06.572Z,99519.81
2023-03-13T08:06:10.845Z,99516.16
2023-03-13T08:07:13.639Z,99516.16
2023-03-13T08:08:15.150Z,99524.97
2023-03-13T08:09:28.975Z,99523.97
2023-03-13T08:10:31.113Z,99516.97
2023-03-13T08:11:33.974Z,99516.00
2023-03-13T08:12:35.525Z,99517.81
2023-03-13T08:13:38.992Z,99523.00
2023-03-13T08:14:41.622Z,99521.81
2023-03-13T08:15:43.256Z,99523.66
2023-03-13T08:16:45.840Z,99525.31
2023-03-13T08:17:47.438Z,99524.13
2023-03-13T08:18:52.787Z,99519.63
2023-03-13T08:19:54.418Z,99530.28
2023-03-13T08:20:56.966Z,99520.47
2023-03-13T08:21:59.469Z,99525.78
2023-03-13T08:23:01.090Z,99526.47
2023-03-13T08:24:05.888Z,99527.13
2023-03-13T08:25:10.513Z,99514.63
2023-03-13T08:26:13.687Z,99519.75
2023-03-13T08:27:16.464Z,99521.44
2023-03-13T08:28:18.950Z,99528.44
2023-03-13T08:29:21.498Z,99519.41
2023-03-13T08:30:23.030Z,99528.91
2023-03-13T08:31:27.883Z,99519.06
2023-03-13T08:32:30.395Z,99525.22
2023-03-13T08:33:32.005Z,99526.91
2023-03-13T08:34:36.837Z,99522.41
2023-03-13T08:35:39.441Z,99531.03
2023-03-13T08:36:42.623Z,99520.22
2023-03-13T08:37:44.236Z,99520.03
2023-03-13T08:38:47.839Z,99525.34
2023-03-13T08:39:49.836Z,99523.38
2023-03-13T08:40:58.572Z,99534.03
2023-03-13T08:42:01.068Z,99525.84
2023-03-13T08:43:03.533Z,99533.00
2023-03-13T08:44:06.493Z,99527.50
2023-03-13T08:45:09.752Z,99533.69
2023-03-13T08:46:12.621Z,99523.84
2023-03-13T08:47:15.505Z,99524.00
2023-03-13T08:48:17.005Z,99517.69
2023-03-13T08:49:19.786Z,99527.31
2023-03-13T08:50:22.503Z,99522.81
2023-03-13T08:51:27.024Z,99518.31
2023-03-13T08:52:29.604Z,99519.16
2023-03-13T08:53:32.280Z,99517.31
2023-03-13T08:54:35.245Z,99515.50
2023-03-13T08:55:37.710Z,99512.00
2023-03-13T08:56:43.424Z,99522.66
2023-03-13T08:57:46.257Z,99524.31
2023-03-13T08:58:49.946Z,99525.31
2023-03-13T08:59:52.842Z,99525.97
2023-03-13T09:00:55.092Z,99511.63
2023-03-13T09:01:57.548Z,99514.94
2023-03-13T09:02:59.185Z,99511.94
2023-03-13T09:04:04.448Z,99509.94
2023-03-13T09:05:07.464Z,99514.06
2023-03-13T09:06:11.213Z,99518.22
2023-03-13T09:07:12.811Z,99507.88
2023-03-13T09:08:15.958Z,99509.16
2023-03-13T09:09:18.895Z,99514.81
2023-03-13T09:10:20.545Z,99504.78
2023-03-13T09:11:23.086Z,99506.09
2023-03-13T09:12:31.194Z,99496.72
2023-03-13T09:13:36.686Z,99504.53
2023-03-13T09:14:39.293Z,99495.69
2023-03-13T09:15:40.957Z,99501.22
2023-03-13T09:16:46.212Z,99496.72
2023-03-13T09:17:48.785Z,99496.53
2023-03-13T09:18:51.610Z,99497.19
2023-03-13T09:20:00.547Z,99493.97
2023-03-13T09:21:04.834Z,99490.78
2023-03-13T09:22:07.359Z,99484.91
2023-03-13T09:23:08.867Z,99477.72
2023-03-13T09:24:11.407Z,99480.38
2023-03-13T09:25:14.510Z,99479.56
2023-03-13T09:26:17.262Z,99483.25
2023-03-13T09:27:19.717Z,99480.56
2023-03-13T09:28:24.642Z,99479.56
2023-03-13T09:29:27.351Z,99473.56
2023-03-13T09:30:29.884Z,99478.91
2023-03-13T09:31:34.237Z,99484.25
2023-03-13T09:32:37.104Z,99476.91
2023-03-13T09:33:40.436Z,99475.72
2023-03-13T09:34:43.020Z,99466.66
2023-03-13T09:35:50.520Z,99464.84
2023-03-13T09:36:53.165Z,99469.34
2023-03-13T09:37:54.805Z,99477.34
2023-03-13T09:38:59.161Z,99472.19
2023-03-13T09:40:01.878Z,99461.69
2023-03-13T09:41:24.934Z,99469.69
2023-03-13T09:42:36.292Z,99458.22
2023-03-13T09:43:47.645Z,99468.06
2023-03-13T09:44:54.544Z,99461.88
2023-03-13T09:46:03.064Z,99457.56
2023-03-13T09:47:11.826Z,99462.88
2023-03-13T09:48:31.159Z,99459.22
2023-03-13T09:49:38.479Z,99467.88
2023-03-13T09:50:44.385Z,99455.19
2023-03-13T09:51:51.706Z,99454.47
2023-03-13T09:52:57.412Z,99473.41
2023-03-13T09:54:07.393Z,99464.03
2023-03-13T09:55:15.461Z,99463.34
2023-03-13T09:56:21.451Z,99466.31
2023-03-13T09:57:31.691Z,99461.88
2023-03-13T09:58:34.889Z,99469.19
2023-03-13T09:59:48.069Z,99459.41
2023-03-13T10:00:55.918Z,99454.97
2023-03-13T10:02:00.409Z,99456.09
2023-03-13T10:03:09.913Z,99452.03
2023-03-13T10:04:28.667Z,99446.16
2023-03-13T10:05:32.425Z,99444.75
2023-03-13T10:06:41.297Z,99444.38
2023-03-13T10:07:44.395Z,99447.69
2023-03-13T10:08:45.972Z,99441.50
2023-03-13T10:09:48.479Z,99442.19
2023-03-13T10:10:55.553Z,99437.66
2023-03-13T10:12:05.910Z,99438.66
2023-03-13T10:13:23.977Z,99429.44
2023-03-13T10:14:31.840Z,99426.78
2023-03-13T10:15:44.828Z,99429.44
2023-03-13T10:16:51.055Z,99426.31
2023-03-13T10:17:54.200Z,99422.63
2023-03-13T10:18:58.144Z,99437.00
2023-03-13T10:20:09.011Z,99425.47
2023-03-13T10:21:17.657Z,99434.16
2023-03-13T10:22:23.504Z,99419.75
2023-03-13T10:23:40.538Z,99426.59
2023-03-13T10:24:48.297Z,99425.38
2023-03-13T10:25:50.981Z,99417.00
2023-03-13T10:26:52.957Z,99417.44
2023-03-13T10:27:55.826Z,99410.44
2023-03-13T10:29:03.351Z,99417.44
2023-03-13T10:30:05.958Z,99406.56
2023-03-13T10:31:18.848Z,99408.44
2023-03-13T10:32:21.056Z,99398.53
2023-03-13T10:33:25.887Z,99398.34
2023-03-13T10:34:30.112Z,99395.69
2023-03-13T10:35:35.111Z,99400.66
2023-03-13T10:36:41.800Z,99407.28
2023-03-13T10:37:44.981Z,99409.75
2023-03-13T10:38:50.888Z,99402.84
2023-03-13T10:39:54.250Z,99391.09
2023-03-13T10:40:58.665Z,99397.75
2023-03-13T10:42:11.097Z,99388.50
2023-03-13T10:43:17.063Z,99395.97
2023-03-13T10:44:21.436Z,99388.19
2023-03-13T10:45:25.563Z,99399.19
2023-03-13T10:46:31.884Z,99388.13
2023-03-13T10:47:36.128Z,99393.91
2023-03-13T10:48:38.883Z,99374.59
2023-03-13T10:49:50.064Z,99383.91
2023-03-13T10:50:53.881Z,99379.19
2023-03-13T10:51:58.438Z,99383.97
2023-03-13T10:53:20.684Z,99381.94
2023-03-13T10:54:25.503Z,99382.34
2023-03-13T10:55:27.208Z,99366.72
2023-03-13T10:56:31.653Z,99370.91
2023-03-13T10:57:36.130Z,99389.03
2023-03-13T10:58:42.876Z,99379.78
2023-03-13T10:59:48.076Z,99362.53
2023-03-13T11:00:51.156Z,99375.53
2023-03-13T11:02:01.351Z,99375.97
2023-03-13T11:03:06.918Z,99358.84
2023-03-13T11:04:21.227Z,99366.50
2023-03-13T11:05:38.879Z,99374.53
2023-03-13T11:06:41.929Z,99367.34
2023-03-13T11:07:46.166Z,99366.50
2023-03-13T11:08:48.706Z,99364.47
2023-03-13T11:09:59.374Z,99372.50
2023-03-13T11:11:02.464Z,99364.25
2023-03-13T11:12:08.049Z,99354.19
2023-03-13T11:13:36.543Z,99368.41
2023-03-13T11:14:40.484Z,99362.41
2023-03-13T11:15:48.312Z,99359.56
2023-03-13T11:16:52.432Z,99360.00
2023-03-13T11:18:01.250Z,99363.28
2023-03-13T11:19:21.884Z,99358.78
2023-03-13T11:20:28.498Z,99335.69
2023-03-13T11:21:37.563Z,99339.59
2023-03-13T11:23:06.140Z,99343.06
2023-03-13T11:24:15.364Z,99343.44
2023-03-13T11:25:23.218Z,99337.25
2023-03-13T11:26:35.905Z,99329.66
2023-03-13T11:27:46.802Z,99333.63
2023-03-13T11:28:55.280Z,99316.75
2023-03-13T11:30:19.753Z,99329.53
2023-03-13T11:31:28.383Z,99316.59
2023-03-13T11:32:39.382Z,99333.31
2023-03-13T11:33:53.334Z,99317.84
2023-03-13T11:34:59.433Z,99319.50
2023-03-13T11:36:04.916Z,99310.66
2023-03-13T11:37:12.537Z,99308.97
2023-03-13T11:38:19.939Z,99309.81
2023-03-13T11:39:42.849Z,99304.03
2023-03-13T11:40:54.227Z,99298.22
2023-03-13T11:42:01.885Z,99299.47
2023-03-13T11:43:25.491Z,99304.81
2023-03-13T11:44:35.318Z,99312.63
2023-03-13T11:46:02.434Z,99298.44
2023-03-13T11:47:21.464Z,99294.94
2023-03-13T11:48:43.582Z,99292.25
2023-03-13T11:49:59.666Z,99280.50
2023-03-13T11:51:12.759Z,99279.09
2023-03-13T11:52:26.845Z,99279.91
2023-03-13T11:53:46.420Z,99275.63
2023-03-13T11:55:04.329Z,99286.56
2023-03-13T11:56:13.348Z,99293.41
2023-03-13T11:57:22.082Z,99281.91
2023-03-13T11:58:39.092Z,99280.31
2023-03-13T11:59:52.373Z,99297.63
2023-03-13T12:00:59.701Z,99277.66
2023-03-13T12:02:08.296Z,99262.19
2023-03-13T12:03:16.839Z,99264.66
2023-03-13T12:04:26.022Z,99252.09
2023-03-13T12:05:43.358Z,99282.41
2023-03-13T12:06:50.536Z,99271.25
2023-03-13T12:07:58.348Z,99264.25
2023-03-13T12:09:11.909Z,99261.97
2023-03-13T12:10:16.220Z,99260.09
2023-03-13T12:11:26.373Z,99273.72
2023-03-13T12:12:38.590Z,99260.72
2023-03-13T12:13:46.074Z,99253.09
2023-03-13T12:14:56.647Z,99245.47
2023-03-13T12:16:05.042Z,99256.19
2023-03-13T12:17:12.513Z,99254.72
2023-03-13T12:18:20.146Z,99255.97
2023-03-13T12:19:35.052Z,99241.56
2023-03-13T12:20:44.982Z,99256.81
2023-03-13T12:21:50.809Z,99240.75
2023-03-13T12:22:58.414Z,99237.84
2023-03-13T12:24:07.652Z,99250.44
2023-03-13T12:25:15.979Z,99241.56
2023-03-13T12:26:21.204Z,99234.56
2023-03-13T12:27:32.572Z,99243.19
2023-03-13T12:28:42.497Z,99231.47
2023-03-13T12:29:53.537Z,99232.09
2023-03-13T12:31:03.820Z,99227.34
2023-03-13T12:32:13.608Z,99235.19
2023-03-13T12:33:20.707Z,99232.94
2023-03-13T12:34:29.957Z,99229.47
2023-03-13T12:35:33.280Z,99222.63
2023-03-13T12:36:44.591Z,99227.59
2023-03-13T12:37:54.162Z,99221.22
2023-03-13T12:39:00.907Z,99237.91